createdAt,value
2018-11-11T00:00:29.860Z,19.9
2018-11-11T00:01:31.219Z,20
2018-11-11T00:02:33.119Z,20
2018-11-11T00:03:34.465Z,20
2018-11-11T00:04:35.807Z,20
2018-11-11T00:05:37.130Z,19.9
2018-11-11T00:06:38.173Z,19.9
2018-11-11T00:07:39.773Z,19.9
2018-11-11T00:08:41.093Z,20
2018-11-11T00:09:42.441Z,20
2018-11-11T00:10:43.760Z,19.9
2018-11-11T00:11:45.359Z,20
2018-11-11T00:12:46.680Z,20
2018-11-11T00:13:48.575Z,19.9
2018-11-11T00:14:49.640Z,20
2018-11-11T00:15:50.690Z,20
2018-11-11T00:16:52.308Z,20
2018-11-11T00:17:53.355Z,20
2018-11-11T00:18:54.699Z,20
2018-11-11T00:19:56.319Z,20
2018-11-11T00:20:57.915Z,20
2018-11-11T00:21:59.260Z,20
2018-11-11T00:23:00.858Z,20
2018-11-11T00:24:02.758Z,20
2018-11-11T00:25:04.654Z,19.9
2018-11-11T00:26:05.975Z,20
2018-11-11T00:27:07.320Z,20
2018-11-11T00:28:08.641Z,19.9
2018-11-11T00:29:09.989Z,20
2018-11-11T00:30:11.612Z,20
2018-11-11T00:31:13.232Z,20
2018-11-11T00:32:14.858Z,20
2018-11-11T00:33:16.184Z,19.9
2018-11-11T00:34:17.800Z,20
2018-11-11T00:35:19.724Z,19.9
2018-11-11T00:36:21.341Z,20
2018-11-11T00:37:22.959Z,20
2018-11-11T00:38:24.581Z,20
2018-11-11T00:39:26.227Z,19.9
2018-11-11T00:40:27.886Z,19.9
2018-11-11T00:41:29.517Z,20
2018-11-11T00:42:30.564Z,19.9
2018-11-11T00:43:32.195Z,20
2018-11-11T00:44:34.092Z,20
2018-11-11T00:45:35.416Z,20
2018-11-11T00:46:36.739Z,20
2018-11-11T00:47:38.402Z,20
2018-11-11T00:48:40.013Z,20
2018-11-11T00:49:41.337Z,20
2018-11-11T00:50:42.959Z,20
2018-11-11T00:51:44.578Z,20
2018-11-11T00:52:45.925Z,19.9
2018-11-11T00:53:46.972Z,20
2018-11-11T00:54:48.593Z,19.8
2018-11-11T00:55:50.213Z,19.9
2018-11-11T00:56:52.110Z,19.9
2018-11-11T00:57:54.009Z,19.9
2018-11-11T00:58:55.056Z,19.9
2018-11-11T00:59:56.398Z,19.9
2018-11-11T01:00:57.722Z,19.9
2018-11-11T01:01:59.043Z,19.9
2018-11-11T01:03:00.673Z,19.9
2018-11-11T01:04:02.001Z,19.8
2018-11-11T01:05:03.345Z,19.9
2018-11-11T01:06:04.688Z,19.8
2018-11-11T01:07:06.007Z,19.9
2018-11-11T01:08:07.071Z,19.9
2018-11-11T01:09:08.966Z,19.8
2018-11-11T01:10:10.865Z,19.9
2018-11-11T01:11:12.481Z,19.9
2018-11-11T01:12:14.153Z,19.9
2018-11-11T01:13:15.624Z,19.9
2018-11-11T01:14:17.241Z,19.9
2018-11-11T01:15:18.596Z,19.9
2018-11-11T01:16:19.660Z,19.9
2018-11-11T01:17:21.556Z,19.9
2018-11-11T01:18:22.880Z,19.9
2018-11-11T01:19:24.779Z,19.9
2018-11-11T01:20:26.100Z,19.9
2018-11-11T01:21:27.442Z,19.9
2018-11-11T01:22:29.339Z,19.9
2018-11-11T01:23:31.239Z,19.9
2018-11-11T01:24:32.579Z,19.9
2018-11-11T01:25:33.923Z,19.9
2018-11-11T01:26:35.521Z,19.9
2018-11-11T01:27:37.418Z,19.9
2018-11-11T01:28:39.314Z,19.9
2018-11-11T01:29:40.933Z,19.9
2018-11-11T01:30:42.827Z,19.9
2018-11-11T01:31:44.447Z,19.8
2018-11-11T01:32:46.344Z,19.9
2018-11-11T01:33:47.962Z,19.9
2018-11-11T01:34:49.582Z,19.9
2018-11-11T01:35:50.925Z,19.9
2018-11-11T01:36:52.819Z,19.9
2018-11-11T01:37:54.162Z,19.9
2018-11-11T01:38:56.071Z,19.9
2018-11-11T01:39:57.394Z,19.8
2018-11-11T01:40:59.291Z,19.9
2018-11-11T01:42:00.611Z,19.9
2018-11-11T01:43:02.237Z,19.9
2018-11-11T01:44:03.572Z,19.9
2018-11-11T01:45:05.171Z,19.7
2018-11-11T01:46:06.214Z,19.9
2018-11-11T01:47:07.829Z,19.8
2018-11-11T01:48:09.426Z,19.8
2018-11-11T01:49:11.323Z,19.9
2018-11-11T01:50:13.219Z,19.8
2018-11-11T01:51:14.259Z,19.8
2018-11-11T01:52:16.156Z,19.8
2018-11-11T01:53:17.785Z,19.8
2018-11-11T01:54:18.832Z,19.7
2018-11-11T01:55:20.729Z,19.8
2018-11-11T01:56:22.327Z,19.9
2018-11-11T01:57:23.945Z,19.8
2018-11-11T01:58:25.841Z,19.9
2018-11-11T01:59:26.883Z,19.8
2018-11-11T02:00:28.524Z,19.8
2018-11-11T02:01:30.142Z,19.8
2018-11-11T02:02:31.488Z,19.8
2018-11-11T02:03:32.808Z,19.9
2018-11-11T02:04:34.133Z,19.9
2018-11-11T02:05:36.032Z,19.9
2018-11-11T02:06:37.371Z,19.9
2018-11-11T02:07:38.712Z,19.9
2018-11-11T02:08:40.312Z,19.9
2018-11-11T02:09:41.969Z,19.9
2018-11-11T02:10:44.140Z,19.9
2018-11-11T02:11:45.760Z,19.9
2018-11-11T02:12:47.084Z,19.8
2018-11-11T02:13:48.981Z,19.8
2018-11-11T02:14:50.305Z,19.8
2018-11-11T02:15:51.922Z,19.7
2018-11-11T02:16:53.818Z,19.8
2018-11-11T02:17:55.435Z,19.9
2018-11-11T02:18:57.052Z,19.8
2018-11-11T02:19:58.673Z,19.8
2018-11-11T02:21:00.061Z,19.8
2018-11-11T02:22:01.937Z,19.8
2018-11-11T02:23:02.977Z,19.8
2018-11-11T02:24:04.575Z,19.8
2018-11-11T02:25:06.194Z,19.7
2018-11-11T02:26:07.795Z,19.8
2018-11-11T02:27:09.116Z,19.8
2018-11-11T02:28:10.159Z,19.8
2018-11-11T02:29:12.052Z,19.7
2018-11-11T02:30:13.395Z,19.8
2018-11-11T02:31:14.998Z,19.8
2018-11-11T02:32:16.041Z,19.8
2018-11-11T02:33:17.983Z,19.8
2018-11-11T02:34:19.032Z,19.8
2018-11-11T02:35:20.956Z,19.8
2018-11-11T02:36:22.553Z,19.8
2018-11-11T02:37:24.214Z,19.7
2018-11-11T02:38:25.639Z,19.8
2018-11-11T02:39:27.535Z,19.8
2018-11-11T02:40:28.860Z,19.8
2018-11-11T02:41:30.201Z,19.8
2018-11-11T02:42:32.099Z,19.8
2018-11-11T02:43:33.166Z,19.7
2018-11-11T02:44:34.755Z,19.7
2018-11-11T02:45:36.078Z,19.7
2018-11-11T02:46:37.695Z,19.7
2018-11-11T02:47:39.314Z,19.7
2018-11-11T02:48:40.649Z,19.7
2018-11-11T02:49:42.560Z,19.7
2018-11-11T02:50:44.167Z,19.7
2018-11-11T02:51:45.763Z,19.8
2018-11-11T02:52:47.102Z,19.7
2018-11-11T02:53:48.703Z,19.7
2018-11-11T02:54:50.321Z,19.8
2018-11-11T02:55:52.213Z,19.7
2018-11-11T02:56:53.829Z,19.8
2018-11-11T02:57:55.182Z,19.8
2018-11-11T02:58:56.803Z,19.7
2018-11-11T02:59:58.435Z,19.7
2018-11-11T03:01:00.057Z,19.8
2018-11-11T03:02:01.737Z,19.7
2018-11-11T03:03:03.361Z,19.7
2018-11-11T03:04:04.717Z,19.7
2018-11-11T03:05:06.417Z,19.7
2018-11-11T03:06:08.034Z,19.7
2018-11-11T03:07:09.654Z,19.8
2018-11-11T03:08:10.700Z,19.7
2018-11-11T03:09:11.777Z,19.6
2018-11-11T03:10:13.088Z,19.6
2018-11-11T03:11:14.427Z,19.6
2018-11-11T03:12:16.048Z,19.6
2018-11-11T03:13:17.664Z,19.6
2018-11-11T03:14:19.560Z,19.6
2018-11-11T03:15:21.178Z,19.6
2018-11-11T03:16:22.797Z,19.6
2018-11-11T03:17:24.692Z,19.7
2018-11-11T03:18:26.045Z,19.7
2018-11-11T03:19:27.941Z,19.6
2018-11-11T03:20:29.567Z,19.6
2018-11-11T03:21:31.182Z,19.7
2018-11-11T03:22:32.505Z,19.6
2018-11-11T03:23:33.843Z,19.6
2018-11-11T03:24:35.450Z,19.6
2018-11-11T03:25:37.059Z,19.6
2018-11-11T03:26:38.662Z,19.7
2018-11-11T03:27:40.553Z,19.6
2018-11-11T03:28:41.896Z,19.7
2018-11-11T03:29:43.220Z,19.6
2018-11-11T03:30:44.849Z,19.7
2018-11-11T03:31:46.468Z,19.6
2018-11-11T03:32:48.105Z,19.6
2018-11-11T03:33:49.993Z,19.7
2018-11-11T03:34:51.904Z,19.7
2018-11-11T03:35:53.513Z,19.7
2018-11-11T03:36:55.136Z,19.7
2018-11-11T03:37:56.476Z,19.7
2018-11-11T03:38:58.092Z,19.7
2018-11-11T03:39:59.433Z,19.7
2018-11-11T03:41:01.328Z,19.7
2018-11-11T03:42:02.668Z,19.8
2018-11-11T03:43:04.011Z,19.7
2018-11-11T03:44:05.352Z,19.7
2018-11-11T03:45:07.245Z,19.7
2018-11-11T03:46:09.140Z,19.6
2018-11-11T03:47:11.034Z,19.6
2018-11-11T03:48:12.356Z,19.6
2018-11-11T03:49:13.403Z,19.6
2018-11-11T03:50:15.301Z,19.5
2018-11-11T03:51:17.196Z,19.6
2018-11-11T03:52:18.794Z,19.6
2018-11-11T03:53:20.687Z,19.6
2018-11-11T03:54:22.583Z,19.6
2018-11-11T03:55:24.205Z,19.6
2018-11-11T03:56:25.803Z,19.6
2018-11-11T03:57:27.411Z,19.6
2018-11-11T03:58:29.053Z,19.6
2018-11-11T03:59:30.797Z,19.6
2018-11-11T04:00:32.413Z,19.6
2018-11-11T04:01:34.032Z,19.6
2018-11-11T04:02:35.372Z,19.6
2018-11-11T04:03:36.992Z,19.6
2018-11-11T04:04:38.605Z,19.6
2018-11-11T04:05:39.945Z,19.6
2018-11-11T04:06:41.561Z,19.6
2018-11-11T04:07:43.180Z,19.6
2018-11-11T04:08:44.798Z,19.6
2018-11-11T04:09:46.394Z,19.6
2018-11-11T04:10:47.712Z,19.6
2018-11-11T04:11:49.054Z,19.5
2018-11-11T04:12:50.959Z,19.5
2018-11-11T04:13:52.296Z,19.6
2018-11-11T04:14:53.617Z,19.5
2018-11-11T04:15:55.240Z,19.6
2018-11-11T04:16:56.302Z,19.6
2018-11-11T04:17:57.625Z,19.6
2018-11-11T04:18:58.970Z,19.6
2018-11-11T04:20:00.863Z,19.6
2018-11-11T04:21:02.222Z,19.7
2018-11-11T04:22:03.843Z,19.6
2018-11-11T04:23:05.163Z,19.6
2018-11-11T04:24:07.066Z,19.6
2018-11-11T04:25:08.978Z,19.6
2018-11-11T04:26:10.313Z,19.6
2018-11-11T04:27:11.934Z,19.7
2018-11-11T04:28:13.260Z,19.7
2018-11-11T04:29:14.035Z,19.6
2018-11-11T04:30:15.344Z,19.6
2018-11-11T04:31:16.666Z,19.7
2018-11-11T04:32:18.281Z,19.6
2018-11-11T04:33:19.325Z,19.6
2018-11-11T04:34:20.667Z,19.6
2018-11-11T04:35:22.266Z,19.6
2018-11-11T04:36:23.862Z,19.6
2018-11-11T04:37:25.271Z,19.7
2018-11-11T04:38:26.598Z,19.6
2018-11-11T04:39:27.917Z,19.6
2018-11-11T04:40:29.238Z,19.6
2018-11-11T04:41:30.860Z,19.6
2018-11-11T04:42:32.200Z,19.6
2018-11-11T04:43:33.799Z,19.6
2018-11-11T04:44:35.437Z,19.7
2018-11-11T04:45:37.048Z,19.6
2018-11-11T04:46:38.198Z,19.6
2018-11-11T04:47:39.417Z,19.6
2018-11-11T04:48:40.734Z,19.6
2018-11-11T04:49:42.629Z,19.6
2018-11-11T04:50:44.529Z,19.6
2018-11-11T04:51:45.876Z,19.7
2018-11-11T04:52:47.475Z,19.7
2018-11-11T04:53:48.854Z,19.7
2018-11-11T04:54:49.896Z,19.6
2018-11-11T04:55:51.792Z,19.6
2018-11-11T04:56:53.389Z,19.6
2018-11-11T04:57:55.286Z,19.6
2018-11-11T04:58:56.887Z,19.6
2018-11-11T04:59:58.502Z,19.6
2018-11-11T05:01:00.128Z,19.7
2018-11-11T05:02:01.445Z,19.6
2018-11-11T05:03:03.065Z,19.6
2018-11-11T05:04:04.683Z,19.6
2018-11-11T05:05:06.302Z,19.5
2018-11-11T05:06:07.644Z,19.5
2018-11-11T05:07:09.268Z,19.5
2018-11-11T05:08:10.890Z,19.5
2018-11-11T05:09:12.505Z,19.5
2018-11-11T05:10:14.124Z,19.6
2018-11-11T05:11:15.748Z,19.5
2018-11-11T05:12:17.093Z,19.6
2018-11-11T05:13:18.436Z,19.6
2018-11-11T05:14:19.779Z,19.6
2018-11-11T05:15:21.395Z,19.6
2018-11-11T05:16:23.287Z,19.6
2018-11-11T05:17:24.955Z,19.7
2018-11-11T05:18:26.549Z,19.6
2018-11-11T05:19:28.171Z,19.6
2018-11-11T05:20:30.068Z,19.6
2018-11-11T05:21:31.412Z,19.6
2018-11-11T05:22:33.030Z,19.6
2018-11-11T05:23:34.352Z,19.6
2018-11-11T05:24:35.969Z,19.7
2018-11-11T05:25:37.869Z,19.6
2018-11-11T05:26:38.913Z,19.7
2018-11-11T05:27:40.601Z,19.6
2018-11-11T05:28:41.928Z,19.6
2018-11-11T05:29:43.527Z,19.6
2018-11-11T05:30:45.197Z,19.7
2018-11-11T05:31:46.599Z,19.6
2018-11-11T05:32:48.223Z,19.7
2018-11-11T05:33:49.266Z,19.6
2018-11-11T05:34:50.885Z,19.6
2018-11-11T05:35:52.216Z,19.6
2018-11-11T05:36:53.834Z,19.7
2018-11-11T05:37:55.450Z,19.6
2018-11-11T05:38:57.101Z,19.6
2018-11-11T05:39:58.422Z,19.7
2018-11-11T05:41:00.024Z,19.6
2018-11-11T05:42:01.344Z,19.6
2018-11-11T05:43:02.688Z,19.6
2018-11-11T05:44:03.744Z,19.6
2018-11-11T05:45:05.335Z,19.6
2018-11-11T05:46:06.675Z,19.7
2018-11-11T05:47:08.293Z,19.7
2018-11-11T05:48:09.618Z,19.6
2018-11-11T05:49:11.217Z,19.6
2018-11-11T05:50:12.543Z,19.6
2018-11-11T05:51:14.142Z,19.6
2018-11-11T05:52:15.184Z,19.6
2018-11-11T05:53:17.098Z,19.6
2018-11-11T05:54:18.985Z,19.6
2018-11-11T05:55:20.606Z,19.7
2018-11-11T05:56:22.228Z,19.6
2018-11-11T05:57:23.847Z,19.6
2018-11-11T05:58:25.463Z,19.6
2018-11-11T05:59:27.061Z,19.6
2018-11-11T06:00:28.405Z,19.7
2018-11-11T06:01:29.999Z,19.7
2018-11-11T06:02:31.323Z,19.6
2018-11-11T06:03:32.939Z,19.6
2018-11-11T06:04:34.556Z,19.6
2018-11-11T06:05:36.451Z,19.7
2018-11-11T06:06:37.519Z,19.7
2018-11-11T06:07:39.138Z,19.7
2018-11-11T06:08:41.031Z,19.7
2018-11-11T06:09:42.927Z,19.6
2018-11-11T06:10:44.827Z,19.6
2018-11-11T06:11:46.730Z,19.6
2018-11-11T06:12:48.338Z,19.6
2018-11-11T06:13:50.240Z,19.7
2018-11-11T06:14:51.283Z,19.6
2018-11-11T06:15:52.348Z,19.6
2018-11-11T06:16:53.667Z,19.7
2018-11-11T06:17:55.570Z,19.6
2018-11-11T06:18:56.883Z,19.7
2018-11-11T06:19:58.482Z,19.7
2018-11-11T06:20:59.800Z,19.6
2018-11-11T06:22:01.147Z,19.6
2018-11-11T06:23:02.761Z,19.7
2018-11-11T06:24:04.358Z,19.7
2018-11-11T06:25:06.000Z,19.6
2018-11-11T06:26:07.351Z,19.7
2018-11-11T06:27:09.282Z,19.7
2018-11-11T06:28:10.903Z,19.7
2018-11-11T06:29:12.227Z,19.7
2018-11-11T06:30:13.549Z,19.7
2018-11-11T06:31:15.177Z,19.7
2018-11-11T06:32:16.798Z,19.7
2018-11-11T06:33:18.695Z,19.6
2018-11-11T06:34:20.589Z,19.7
2018-11-11T06:35:22.206Z,19.6
2018-11-11T06:36:23.830Z,19.6
2018-11-11T06:37:25.719Z,19.5
2018-11-11T06:38:27.047Z,19.6
2018-11-11T06:39:28.640Z,19.6
2018-11-11T06:40:30.261Z,19.6
2018-11-11T06:41:32.157Z,19.6
2018-11-11T06:42:34.056Z,19.6
2018-11-11T06:43:35.123Z,19.6
2018-11-11T06:44:37.047Z,19.6
2018-11-11T06:45:38.665Z,19.6
2018-11-11T06:46:40.558Z,19.6
2018-11-11T06:47:42.183Z,19.6
2018-11-11T06:48:44.078Z,19.5
2018-11-11T06:49:45.694Z,19.6
2018-11-11T06:50:47.020Z,19.6
2018-11-11T06:51:48.359Z,19.7
2018-11-11T06:52:49.979Z,19.6
2018-11-11T06:53:51.579Z,19.6
2018-11-11T06:54:53.476Z,19.6
2018-11-11T06:55:55.099Z,19.6
2018-11-11T06:56:56.439Z,19.7
2018-11-11T06:57:58.436Z,19.7
2018-11-11T06:59:00.194Z,19.6
2018-11-11T07:00:02.093Z,19.6
2018-11-11T07:01:03.417Z,19.7
2018-11-11T07:02:04.759Z,19.7
2018-11-11T07:03:06.075Z,19.7
2018-11-11T07:04:07.699Z,19.7
2018-11-11T07:05:09.601Z,19.7
2018-11-11T07:06:11.499Z,19.8
2018-11-11T07:07:12.823Z,19.7
2018-11-11T07:08:14.744Z,19.7
2018-11-11T07:09:16.642Z,19.7
2018-11-11T07:10:18.268Z,19.7
2018-11-11T07:11:19.869Z,19.7
2018-11-11T07:12:21.763Z,19.7
2018-11-11T07:13:23.660Z,19.7
2018-11-11T07:14:24.713Z,19.7
2018-11-11T07:15:26.326Z,19.7
2018-11-11T07:16:27.942Z,19.8
2018-11-11T07:17:29.840Z,19.7
2018-11-11T07:18:30.902Z,19.7
2018-11-11T07:19:32.224Z,19.7
2018-11-11T07:20:34.135Z,19.7
2018-11-11T07:21:36.034Z,19.7
2018-11-11T07:22:37.355Z,19.7
2018-11-11T07:23:38.794Z,19.8
2018-11-11T07:24:40.579Z,19.7
2018-11-11T07:25:42.480Z,19.7
2018-11-11T07:26:43.824Z,19.8
2018-11-11T07:27:45.717Z,19.7
2018-11-11T07:28:47.038Z,19.8
2018-11-11T07:29:48.639Z,19.8
2018-11-11T07:30:49.961Z,19.7
2018-11-11T07:31:51.582Z,19.7
2018-11-11T07:32:52.927Z,19.8
2018-11-11T07:33:54.301Z,19.7
2018-11-11T07:34:55.637Z,19.7
2018-11-11T07:35:57.323Z,19.7
2018-11-11T07:36:59.052Z,19.8
2018-11-11T07:38:00.382Z,19.7
2018-11-11T07:39:02.376Z,19.8
2018-11-11T07:40:04.273Z,19.7
2018-11-11T07:41:05.896Z,19.7
2018-11-11T07:42:07.788Z,19.7
2018-11-11T07:43:09.712Z,19.7
2018-11-11T07:44:11.386Z,19.7
2018-11-11T07:45:13.004Z,19.7
2018-11-11T07:46:14.623Z,19.7
2018-11-11T07:47:16.226Z,19.8
2018-11-11T07:48:17.270Z,19.8
2018-11-11T07:49:18.888Z,19.8
2018-11-11T07:50:20.508Z,19.8
2018-11-11T07:51:21.853Z,19.8
2018-11-11T07:52:23.488Z,19.8
2018-11-11T07:53:24.817Z,19.9
2018-11-11T07:54:26.711Z,19.9
2018-11-11T07:55:28.317Z,19.8
2018-11-11T07:56:29.661Z,19.8
2018-11-11T07:57:31.285Z,19.8
2018-11-11T07:58:32.975Z,19.9
2018-11-11T07:59:35.270Z,19.8
2018-11-11T08:00:36.871Z,19.8
2018-11-11T08:01:38.596Z,19.8
2018-11-11T08:02:40.176Z,19.7
2018-11-11T08:03:41.496Z,19.9
2018-11-11T08:04:43.114Z,19.8
2018-11-11T08:05:44.735Z,19.9
2018-11-11T08:06:46.057Z,19.9
2018-11-11T08:07:47.673Z,19.9
2018-11-11T08:08:48.995Z,19.9
2018-11-11T08:09:50.346Z,19.8
2018-11-11T08:10:51.969Z,20
2018-11-11T08:11:53.690Z,19.9
2018-11-11T08:12:55.032Z,19.9
2018-11-11T08:13:56.928Z,19.9
2018-11-11T08:14:58.526Z,19.9
2018-11-11T08:16:00.428Z,19.9
2018-11-11T08:17:01.496Z,20
2018-11-11T08:18:03.399Z,20
2018-11-11T08:19:04.446Z,20
2018-11-11T08:20:06.066Z,20
2018-11-11T08:21:07.406Z,19.9
2018-11-11T08:22:09.029Z,20
2018-11-11T08:23:10.361Z,20
2018-11-11T08:24:11.699Z,19.9
2018-11-11T08:25:13.333Z,20
2018-11-11T08:26:14.732Z,19.9
2018-11-11T08:27:16.355Z,20
2018-11-11T08:28:18.256Z,20
2018-11-11T08:29:19.884Z,20
2018-11-11T08:30:21.225Z,19.9
2018-11-11T08:31:22.275Z,20
2018-11-11T08:32:23.642Z,20
2018-11-11T08:33:25.568Z,19.9
2018-11-11T08:34:27.168Z,20
2018-11-11T08:35:28.787Z,19.9
2018-11-11T08:36:30.684Z,20
2018-11-11T08:37:32.299Z,20
2018-11-11T08:38:33.342Z,19.9
2018-11-11T08:39:34.969Z,19.9
2018-11-11T08:40:36.935Z,19.9
2018-11-11T08:41:38.951Z,19.9
2018-11-11T08:42:40.551Z,19.9
2018-11-11T08:43:41.881Z,19.9
2018-11-11T08:44:43.199Z,20
2018-11-11T08:45:44.819Z,19.9
2018-11-11T08:46:45.897Z,19.9
2018-11-11T08:47:47.795Z,19.9
2018-11-11T08:48:49.138Z,20
2018-11-11T08:49:50.461Z,20
2018-11-11T08:50:52.082Z,20
2018-11-11T08:51:53.678Z,20
2018-11-11T08:52:55.301Z,20
2018-11-11T08:53:56.917Z,20
2018-11-11T08:54:58.815Z,20
2018-11-11T08:56:00.436Z,20
2018-11-11T08:57:02.056Z,20
2018-11-11T08:58:03.555Z,20
2018-11-11T08:59:06.076Z,20.2
2018-11-11T09:00:07.419Z,20
2018-11-11T09:01:09.037Z,20.1
2018-11-11T09:02:10.659Z,20.1
2018-11-11T09:03:11.704Z,20.1
2018-11-11T09:04:13.023Z,20.1
2018-11-11T09:05:14.919Z,20.1
2018-11-11T09:06:16.820Z,20.1
2018-11-11T09:07:18.719Z,20.1
2018-11-11T09:08:20.615Z,20.2
2018-11-11T09:09:22.217Z,20.1
2018-11-11T09:10:23.838Z,20.2
2018-11-11T09:11:25.497Z,20.1
2018-11-11T09:12:27.422Z,20.2
2018-11-11T09:13:29.327Z,20.1
2018-11-11T09:14:30.672Z,20.1
2018-11-11T09:15:32.289Z,20.1
2018-11-11T09:16:33.892Z,20.1
2018-11-11T09:17:35.561Z,20.1
2018-11-11T09:18:36.897Z,20.1
2018-11-11T09:19:38.524Z,20.1
2018-11-11T09:20:40.140Z,20.1
2018-11-11T09:21:41.766Z,20.2
2018-11-11T09:22:43.383Z,20.2
2018-11-11T09:23:45.086Z,20.1
2018-11-11T09:24:47.496Z,20.1
2018-11-11T09:25:49.106Z,20.1
2018-11-11T09:26:51.017Z,20.1
2018-11-11T09:27:52.634Z,20.2
2018-11-11T09:28:54.259Z,20.2
2018-11-11T09:29:56.195Z,20.2
2018-11-11T09:30:57.815Z,20.1
2018-11-11T09:31:59.437Z,20.2
2018-11-11T09:33:01.055Z,20.1
2018-11-11T09:34:02.120Z,20.1
2018-11-11T09:35:03.588Z,20.1
2018-11-11T09:36:05.335Z,20.2
2018-11-11T09:37:06.383Z,20.2
2018-11-11T09:38:07.726Z,20.1
2018-11-11T09:39:09.752Z,20.1
2018-11-11T09:40:12.031Z,20.1
2018-11-11T09:41:13.349Z,20.1
2018-11-11T09:42:15.264Z,20.2
2018-11-11T09:43:16.899Z,20.2
2018-11-11T09:44:18.523Z,20.2
2018-11-11T09:45:19.840Z,20.2
2018-11-11T09:46:21.458Z,20.2
2018-11-11T09:47:22.782Z,20.2
2018-11-11T09:48:24.479Z,20.2
2018-11-11T09:49:26.075Z,20.2
2018-11-11T09:50:27.423Z,20.2
2018-11-11T09:51:29.043Z,20.3
2018-11-11T09:52:30.444Z,20.2
2018-11-11T09:53:32.493Z,20.3
2018-11-11T09:54:34.115Z,20.2
2018-11-11T09:55:35.462Z,20.2
2018-11-11T09:56:37.356Z,20.2
2018-11-11T09:57:39.255Z,20.2
2018-11-11T09:58:40.336Z,20.2
2018-11-11T09:59:42.217Z,20.3
2018-11-11T10:00:43.961Z,20.2
2018-11-11T10:01:45.852Z,20.3
2018-11-11T10:02:47.753Z,20.3
2018-11-11T10:03:49.369Z,20.3
2018-11-11T10:04:50.740Z,20.3
2018-11-11T10:05:52.897Z,20.2
2018-11-11T10:06:54.579Z,20.2
2018-11-11T10:07:56.474Z,20.2
2018-11-11T10:08:58.368Z,20.3
2018-11-11T10:09:59.415Z,20.3
2018-11-11T10:11:01.311Z,20.2
2018-11-11T10:12:02.635Z,20.3
2018-11-11T10:13:04.254Z,20.2
2018-11-11T10:14:05.302Z,20.3
2018-11-11T10:15:06.919Z,20.3
2018-11-11T10:16:08.520Z,20.3
2018-11-11T10:17:10.141Z,20.3
2018-11-11T10:18:11.759Z,20.2
2018-11-11T10:19:13.663Z,20.3
2018-11-11T10:20:15.308Z,20.3
2018-11-11T10:21:16.884Z,20.3
2018-11-11T10:22:18.232Z,20.3
2018-11-11T10:23:20.129Z,20.4
2018-11-11T10:24:21.751Z,20.3
2018-11-11T10:25:23.372Z,20.4
2018-11-11T10:26:24.693Z,20.3
2018-11-11T10:27:26.142Z,20.4
2018-11-11T10:28:27.825Z,20.3
2018-11-11T10:29:29.557Z,20.3
2018-11-11T10:30:31.903Z,20.3
2018-11-11T10:31:33.223Z,20.3
2018-11-11T10:32:35.120Z,20.3
2018-11-11T10:33:36.851Z,20.3
2018-11-11T10:34:39.325Z,20.3
2018-11-11T10:35:40.921Z,20.3
2018-11-11T10:36:42.264Z,20.3
2018-11-11T10:37:44.158Z,20.2
2018-11-11T10:38:45.483Z,20.3
2018-11-11T10:39:46.825Z,20.4
2018-11-11T10:40:48.150Z,20.3
2018-11-11T10:41:49.195Z,20.3
2018-11-11T10:42:50.528Z,20.4
2018-11-11T10:43:52.140Z,20.4
2018-11-11T10:44:53.458Z,20.4
2018-11-11T10:45:55.075Z,20.4
2018-11-11T10:46:56.698Z,20.4
2018-11-11T10:47:57.743Z,20.4
2018-11-11T10:48:59.085Z,20.4
2018-11-11T10:50:00.706Z,20.4
2018-11-11T10:51:02.602Z,20.4
2018-11-11T10:52:03.949Z,20.4
2018-11-11T10:53:05.843Z,20.4
2018-11-11T10:54:07.518Z,20.4
2018-11-11T10:55:09.200Z,20.4
2018-11-11T10:56:09.967Z,20.4
2018-11-11T10:57:11.860Z,20.4
2018-11-11T10:58:13.480Z,20.4
2018-11-11T10:59:15.097Z,20.4
2018-11-11T11:00:17.062Z,20.4
2018-11-11T11:01:19.469Z,20.4
2018-11-11T11:02:20.526Z,20.4
2018-11-11T11:03:21.846Z,20.4
2018-11-11T11:04:23.470Z,20.4
2018-11-11T11:05:24.798Z,20.4
2018-11-11T11:06:26.688Z,20.4
2018-11-11T11:07:28.035Z,20.3
2018-11-11T11:08:29.934Z,20.4
2018-11-11T11:09:31.835Z,20.4
2018-11-11T11:10:33.724Z,20.4
2018-11-11T11:11:35.625Z,20.4
2018-11-11T11:12:37.518Z,20.5
2018-11-11T11:13:39.462Z,20.4
2018-11-11T11:14:41.446Z,20.5
2018-11-11T11:15:42.787Z,20.4
2018-11-11T11:16:44.112Z,20.4
2018-11-11T11:17:46.006Z,20.4
2018-11-11T11:18:47.908Z,20.4
2018-11-11T11:19:49.523Z,20.4
2018-11-11T11:20:51.128Z,20.4
2018-11-11T11:21:53.025Z,20.4
2018-11-11T11:22:54.980Z,20.4
2018-11-11T11:23:56.914Z,20.4
2018-11-11T11:24:58.286Z,20.4
2018-11-11T11:25:59.908Z,20.5
2018-11-11T11:27:01.626Z,20.4
2018-11-11T11:28:03.381Z,20.6
2018-11-11T11:29:05.283Z,20.5
2018-11-11T11:30:07.173Z,20.5
2018-11-11T11:31:08.495Z,20.4
2018-11-11T11:32:09.867Z,20.6
2018-11-11T11:33:12.432Z,20.5
2018-11-11T11:34:13.778Z,20.5
2018-11-11T11:35:15.278Z,20.5
2018-11-11T11:36:16.722Z,20.5
2018-11-11T11:37:18.672Z,20.5
2018-11-11T11:38:20.319Z,20.5
2018-11-11T11:39:22.227Z,20.5
2018-11-11T11:40:23.555Z,20.5
2018-11-11T11:41:24.939Z,20.5
2018-11-11T11:42:27.435Z,20.5
2018-11-11T11:43:28.753Z,20.4
2018-11-11T11:44:30.376Z,20.5
2018-11-11T11:45:32.278Z,20.5
2018-11-11T11:46:34.173Z,20.4
2018-11-11T11:47:35.863Z,20.5
2018-11-11T11:48:37.353Z,20.6
2018-11-11T11:49:39.274Z,20.6
2018-11-11T11:50:41.171Z,20.6
2018-11-11T11:51:42.792Z,20.6
2018-11-11T11:52:44.529Z,20.6
2018-11-11T11:53:46.265Z,20.6
2018-11-11T11:54:47.868Z,20.6
2018-11-11T11:55:48.938Z,20.6
2018-11-11T11:56:50.286Z,20.6
2018-11-11T11:57:51.940Z,20.7
2018-11-11T11:58:53.630Z,20.7
2018-11-11T11:59:55.224Z,20.6
2018-11-11T12:00:56.852Z,20.7
2018-11-11T12:01:58.518Z,20.6
2018-11-11T12:03:00.175Z,20.6
2018-11-11T12:04:01.797Z,20.6
2018-11-11T12:05:03.406Z,20.7
2018-11-11T12:06:05.031Z,20.7
2018-11-11T12:07:06.629Z,20.6
2018-11-11T12:08:07.974Z,20.7
2018-11-11T12:09:09.374Z,20.7
2018-11-11T12:10:10.859Z,20.7
2018-11-11T12:11:12.202Z,20.6
2018-11-11T12:12:13.823Z,20.7
2018-11-11T12:13:15.441Z,20.6
2018-11-11T12:14:17.057Z,20.6
2018-11-11T12:15:18.404Z,20.7
2018-11-11T12:16:20.314Z,20.7
2018-11-11T12:17:22.022Z,20.7
2018-11-11T12:18:23.369Z,20.6
2018-11-11T12:19:24.988Z,20.7
2018-11-11T12:20:26.887Z,20.6
2018-11-11T12:21:28.210Z,20.7
2018-11-11T12:22:29.809Z,20.7
2018-11-11T12:23:31.434Z,20.7
2018-11-11T12:24:32.793Z,20.7
2018-11-11T12:25:34.414Z,20.6
2018-11-11T12:26:35.760Z,20.6
2018-11-11T12:27:37.383Z,20.6
2018-11-11T12:28:39.277Z,20.7
2018-11-11T12:29:41.208Z,20.6
2018-11-11T12:30:42.578Z,20.6
2018-11-11T12:31:44.043Z,20.6
2018-11-11T12:32:45.641Z,20.7
2018-11-11T12:33:47.265Z,20.6
2018-11-11T12:34:48.900Z,20.6
2018-11-11T12:35:50.242Z,20.6
2018-11-11T12:36:52.135Z,20.6
2018-11-11T12:37:53.758Z,20.7
2018-11-11T12:38:55.113Z,20.7
2018-11-11T12:39:57.310Z,20.6
2018-11-11T12:40:59.989Z,20.7
2018-11-11T12:42:01.335Z,20.6
2018-11-11T12:43:02.676Z,20.6
2018-11-11T12:44:03.716Z,20.6
2018-11-11T12:45:05.313Z,20.6
2018-11-11T12:46:06.935Z,20.7
2018-11-11T12:47:08.579Z,20.6
2018-11-11T12:48:09.967Z,20.6
2018-11-11T12:49:11.333Z,20.6
2018-11-11T12:50:13.336Z,20.7
2018-11-11T12:51:15.134Z,20.7
2018-11-11T12:52:16.754Z,20.7
2018-11-11T12:53:18.373Z,20.7
2018-11-11T12:54:19.994Z,20.6
2018-11-11T12:55:21.394Z,20.7
2018-11-11T12:56:23.677Z,20.7
2018-11-11T12:57:25.580Z,20.6
2018-11-11T12:58:26.893Z,20.6
2018-11-11T12:59:28.795Z,20.6
2018-11-11T13:00:30.395Z,20.6
2018-11-11T13:01:31.720Z,20.6
2018-11-11T13:02:33.042Z,20.7
2018-11-11T13:03:34.937Z,20.6
2018-11-11T13:04:36.321Z,20.6
2018-11-11T13:05:38.015Z,20.7
2018-11-11T13:06:39.054Z,20.7
2018-11-11T13:07:40.373Z,20.7
2018-11-11T13:08:41.717Z,20.6
2018-11-11T13:09:43.342Z,20.6
2018-11-11T13:10:44.704Z,20.7
2018-11-11T13:11:46.665Z,20.6
2018-11-11T13:12:48.036Z,20.7
2018-11-11T13:13:49.374Z,20.7
2018-11-11T13:14:51.368Z,20.6
2018-11-11T13:15:52.988Z,20.6
2018-11-11T13:16:54.615Z,20.6
2018-11-11T13:17:56.269Z,20.7
2018-11-11T13:18:57.330Z,20.6
2018-11-11T13:19:59.228Z,20.7
2018-11-11T13:21:00.271Z,20.6
2018-11-11T13:22:01.438Z,20.6
2018-11-11T13:23:03.043Z,20.6
2018-11-11T13:24:04.195Z,20.6
2018-11-11T13:25:05.855Z,20.6
2018-11-11T13:26:07.473Z,20.6
2018-11-11T13:27:08.804Z,20.6
2018-11-11T13:28:10.157Z,20.7
2018-11-11T13:29:11.752Z,20.7
2018-11-11T13:30:13.096Z,20.7
2018-11-11T13:31:14.436Z,20.6
2018-11-11T13:32:15.502Z,20.6
2018-11-11T13:33:16.828Z,20.6
2018-11-11T13:34:18.423Z,20.7
2018-11-11T13:35:20.321Z,20.6
2018-11-11T13:36:21.669Z,20.6
2018-11-11T13:37:23.569Z,20.6
2018-11-11T13:38:25.577Z,20.6
2018-11-11T13:39:27.485Z,20.7
2018-11-11T13:40:29.393Z,20.6
2018-11-11T13:41:31.018Z,20.6
2018-11-11T13:42:32.088Z,20.6
2018-11-11T13:43:33.432Z,20.7